createdAt,value
2023-03-27T00:00:13.228Z,21.90
2023-03-27T00:02:41.862Z,21.90
2023-03-27T00:05:11.205Z,21.90
2023-03-27T00:07:41.245Z,21.90
2023-03-27T00:10:10.326Z,21.90
2023-03-27T00:12:39.133Z,21.90
2023-03-27T00:15:09.958Z,21.90
2023-03-27T00:17:38.149Z,21.90
2023-03-27T00:20:07.368Z,21.90
2023-03-27T00:22:36.026Z,21.90
2023-03-27T00:25:05.221Z,21.90
2023-03-27T00:27:33.344Z,21.90
2023-03-27T00:30:01.471Z,21.90
2023-03-27T00:32:30.969Z,21.90
2023-03-27T00:34:59.252Z,21.90
2023-03-27T00:37:27.359Z,21.90
2023-03-27T00:39:55.763Z,21.90
2023-03-27T00:42:25.209Z,21.90
2023-03-27T00:44:54.218Z,21.90
2023-03-27T00:47:31.028Z,21.90
2023-03-27T00:50:02.498Z,21.90
2023-03-27T00:52:32.222Z,21.90
2023-03-27T00:55:04.135Z,21.90
2023-03-27T00:57:32.566Z,21.90
2023-03-27T01:00:10.057Z,21.90
2023-03-27T01:02:38.803Z,21.90
2023-03-27T01:05:09.629Z,21.90
2023-03-27T01:07:39.309Z,21.90
2023-03-27T01:10:11.890Z,21.90
2023-03-27T01:12:49.885Z,21.90
2023-03-27T01:15:29.314Z,21.90
2023-03-27T01:18:15.909Z,21.90
2023-03-27T01:21:03.796Z,21.90
2023-03-27T01:24:00.383Z,21.90
2023-03-27T01:27:02.005Z,21.90
2023-03-27T01:30:05.754Z,21.90
2023-03-27T01:33:04.755Z,21.90
2023-03-27T01:36:09.406Z,21.90
2023-03-27T01:39:08.468Z,21.90
2023-03-27T01:41:43.718Z,21.90
2023-03-27T01:44:18.164Z,21.80
2023-03-27T01:46:53.978Z,21.80
2023-03-27T01:49:26.330Z,21.90
2023-03-27T01:51:57.819Z,21.90
2023-03-27T01:54:29.316Z,21.90
2023-03-27T01:57:04.925Z,21.90
2023-03-27T01:59:38.645Z,21.90
2023-03-27T02:02:12.870Z,21.90
2023-03-27T02:04:45.051Z,21.90
2023-03-27T02:07:18.734Z,21.90
2023-03-27T02:09:51.883Z,21.90
2023-03-27T02:12:25.741Z,21.90
2023-03-27T02:14:57.280Z,21.90
2023-03-27T02:17:49.149Z,21.90
2023-03-27T02:20:17.884Z,21.90
2023-03-27T02:22:48.899Z,21.90
2023-03-27T02:25:26.255Z,21.90
2023-03-27T02:28:07.779Z,21.90
2023-03-27T02:30:41.259Z,21.90
2023-03-27T02:33:19.047Z,21.90
2023-03-27T02:35:54.798Z,21.90
2023-03-27T02:38:31.554Z,21.90
2023-03-27T02:41:10.190Z,21.90
2023-03-27T02:43:55.353Z,21.90
2023-03-27T02:46:41.323Z,21.90
2023-03-27T02:49:14.509Z,21.90
2023-03-27T02:51:46.849Z,21.90
2023-03-27T02:54:18.481Z,21.90
2023-03-27T02:56:49.814Z,21.90
2023-03-27T02:59:31.564Z,21.90
2023-03-27T03:02:01.449Z,21.90
2023-03-27T03:04:41.742Z,21.90
2023-03-27T03:07:16.109Z,21.90
2023-03-27T03:09:45.121Z,21.90
2023-03-27T03:12:13.263Z,21.90
2023-03-27T03:14:45.481Z,21.90
2023-03-27T03:17:13.922Z,21.90
2023-03-27T03:19:42.049Z,21.90
2023-03-27T03:22:10.774Z,21.90
2023-03-27T03:24:42.144Z,21.80
2023-03-27T03:27:12.816Z,21.80
2023-03-27T03:29:58.327Z,21.80
2023-03-27T03:32:30.445Z,21.80
2023-03-27T03:35:01.699Z,21.80
2023-03-27T03:37:38.816Z,21.80
2023-03-27T03:40:11.944Z,21.80
2023-03-27T03:42:46.982Z,21.80
2023-03-27T03:45:16.998Z,21.80
2023-03-27T03:47:46.954Z,21.80
2023-03-27T03:50:15.710Z,21.80
2023-03-27T03:52:44.120Z,21.80
2023-03-27T03:55:12.847Z,21.80
2023-03-27T03:57:41.895Z,21.80
2023-03-27T04:00:18.714Z,21.80
2023-03-27T04:02:53.309Z,21.80
2023-03-27T04:05:22.647Z,21.80
2023-03-27T04:07:55.613Z,21.80
2023-03-27T04:10:42.208Z,21.80
2023-03-27T04:13:19.919Z,21.80
2023-03-27T04:16:01.549Z,21.80
2023-03-27T04:18:39.292Z,21.80
2023-03-27T04:21:14.607Z,21.80
2023-03-27T04:23:43.634Z,21.80
2023-03-27T04:26:13.455Z,21.80
2023-03-27T04:29:10.977Z,21.80
2023-03-27T04:32:00.957Z,21.80
2023-03-27T04:34:41.447Z,21.80
2023-03-27T04:37:09.642Z,21.80
2023-03-27T04:39:42.940Z,21.80
2023-03-27T04:42:11.938Z,21.80
2023-03-27T04:44:40.341Z,21.80
2023-03-27T04:47:11.034Z,21.80
2023-03-27T04:49:43.691Z,21.80
2023-03-27T04:52:20.204Z,21.80
2023-03-27T04:54:49.196Z,21.80
2023-03-27T04:57:19.058Z,21.80
2023-03-27T04:59:50.306Z,21.80
2023-03-27T05:02:38.628Z,21.80
2023-03-27T05:05:20.924Z,21.80
2023-03-27T05:07:50.702Z,21.80
2023-03-27T05:10:22.221Z,21.80
2023-03-27T05:12:53.406Z,21.80
2023-03-27T05:15:22.626Z,21.80
2023-03-27T05:17:54.974Z,21.80
2023-03-27T05:20:26.736Z,21.80
2023-03-27T05:22:55.241Z,21.70
2023-03-27T05:25:31.644Z,21.70
2023-03-27T05:28:01.429Z,21.70
2023-03-27T05:30:32.877Z,21.70
2023-03-27T05:33:20.896Z,21.70
2023-03-27T05:35:50.536Z,21.70
2023-03-27T05:38:19.618Z,21.70
2023-03-27T05:41:16.800Z,21.60
2023-03-27T05:43:51.247Z,21.60
2023-03-27T05:46:21.145Z,21.60
2023-03-27T05:49:00.308Z,21.60
2023-03-27T05:51:29.315Z,21.60
2023-03-27T05:53:57.972Z,21.60
2023-03-27T05:56:35.433Z,21.60
2023-03-27T05:59:05.356Z,21.60
2023-03-27T06:01:36.147Z,21.70
2023-03-27T06:04:05.959Z,21.70
2023-03-27T06:07:02.408Z,21.70
2023-03-27T06:09:32.611Z,21.70
2023-03-27T06:12:19.007Z,21.70
2023-03-27T06:14:49.173Z,21.70
2023-03-27T06:17:39.332Z,21.70
2023-03-27T06:20:12.670Z,21.70
2023-03-27T06:22:46.013Z,21.70
2023-03-27T06:25:17.211Z,21.70
2023-03-27T06:27:47.403Z,21.70
2023-03-27T06:30:18.227Z,21.70
2023-03-27T06:33:01.238Z,21.70
2023-03-27T06:35:33.153Z,21.70
2023-03-27T06:38:18.894Z,21.70
2023-03-27T06:40:47.927Z,21.70
2023-03-27T06:43:19.059Z,21.80
2023-03-27T06:45:54.745Z,21.80
2023-03-27T06:48:41.803Z,21.80
2023-03-27T06:51:11.373Z,21.80
2023-03-27T06:53:39.625Z,21.80
2023-03-27T06:56:09.256Z,21.90
2023-03-27T06:59:00.233Z,21.90
2023-03-27T07:01:29.499Z,21.90
2023-03-27T07:04:12.376Z,21.90
2023-03-27T07:06:55.307Z,22.00
2023-03-27T07:09:23.818Z,22.00
2023-03-27T07:12:04.197Z,22.00
2023-03-27T07:14:32.349Z,22.00
2023-03-27T07:17:03.366Z,22.00
2023-03-27T07:19:53.856Z,22.00
2023-03-27T07:22:27.362Z,22.10
2023-03-27T07:24:57.566Z,22.10
2023-03-27T07:27:27.216Z,22.10
2023-03-27T07:30:02.867Z,22.20
2023-03-27T07:32:37.045Z,22.20
2023-03-27T07:35:09.903Z,22.20
2023-03-27T07:38:00.242Z,22.20
2023-03-27T07:40:40.410Z,22.30
2023-03-27T07:43:44.138Z,22.30
2023-03-27T07:46:12.553Z,22.30
2023-03-27T07:48:41.290Z,22.40
2023-03-27T07:51:17.089Z,22.40
2023-03-27T07:53:47.528Z,22.40
2023-03-27T07:56:26.639Z,22.40
2023-03-27T07:59:28.077Z,22.40
2023-03-27T08:01:58.074Z,22.40
2023-03-27T08:04:29.321Z,22.40
2023-03-27T08:07:05.461Z,22.40
2023-03-27T08:09:36.666Z,22.40
2023-03-27T08:12:07.605Z,22.40
2023-03-27T08:14:40.928Z,22.40
2023-03-27T08:17:22.032Z,22.40
2023-03-27T08:19:50.670Z,22.40
2023-03-27T08:22:21.084Z,22.40
2023-03-27T08:25:11.180Z,22.40
2023-03-27T08:27:40.711Z,22.40
2023-03-27T08:30:11.796Z,22.40
2023-03-27T08:32:42.466Z,22.40
2023-03-27T08:35:12.200Z,22.40
2023-03-27T08:37:42.348Z,22.40
2023-03-27T08:40:53.376Z,22.40
2023-03-27T08:43:34.939Z,22.40
2023-03-27T08:46:07.514Z,22.40
2023-03-27T08:48:43.232Z,22.40
2023-03-27T08:51:17.416Z,22.40
2023-03-27T08:53:50.394Z,22.40
2023-03-27T08:56:26.406Z,22.40
2023-03-27T08:58:56.178Z,22.40
2023-03-27T09:01:31.344Z,22.40
2023-03-27T09:04:12.742Z,22.40
2023-03-27T09:06:53.499Z,22.50
2023-03-27T09:09:33.415Z,22.50
2023-03-27T09:12:09.811Z,22.50
2023-03-27T09:14:44.852Z,22.50
2023-03-27T09:17:18.205Z,22.60
2023-03-27T09:19:52.027Z,22.60
2023-03-27T09:22:28.475Z,22.60
2023-03-27T09:25:23.364Z,22.60
2023-03-27T09:28:32.624Z,22.60
2023-03-27T09:31:23.478Z,22.60
2023-03-27T09:33:52.388Z,22.60
2023-03-27T09:36:21.851Z,22.60
2023-03-27T09:38:53.089Z,22.60
2023-03-27T09:41:29.903Z,22.70
2023-03-27T09:44:06.163Z,22.70
2023-03-27T09:46:38.950Z,22.70
2023-03-27T09:49:13.824Z,22.70
2023-03-27T09:51:49.451Z,22.70
2023-03-27T09:54:54.699Z,22.80
2023-03-27T09:57:34.493Z,22.80
2023-03-27T10:00:14.442Z,22.80
2023-03-27T10:03:01.429Z,22.80
2023-03-27T10:05:32.662Z,22.80
2023-03-27T10:08:19.974Z,22.90
2023-03-27T10:11:09.097Z,22.90
2023-03-27T10:14:02.193Z,22.90
2023-03-27T10:16:40.803Z,22.90
2023-03-27T10:19:22.209Z,22.90
2023-03-27T10:21:52.652Z,23.00
2023-03-27T10:24:33.144Z,23.00
2023-03-27T10:27:12.125Z,23.00
2023-03-27T10:29:48.456Z,23.10
2023-03-27T10:32:18.911Z,23.10
2023-03-27T10:34:59.227Z,23.10
2023-03-27T10:37:51.092Z,23.10
2023-03-27T10:40:40.589Z,23.10
2023-03-27T10:43:21.743Z,23.10
2023-03-27T10:45:54.299Z,23.10
2023-03-27T10:48:37.287Z,23.10
2023-03-27T10:51:09.404Z,23.10
2023-03-27T10:53:56.953Z,23.10
2023-03-27T10:56:46.999Z,23.20
2023-03-27T10:59:31.052Z,23.20
2023-03-27T11:02:15.424Z,23.20
2023-03-27T11:04:50.554Z,23.30
2023-03-27T11:07:23.651Z,23.50
2023-03-27T11:10:04.435Z,23.70
2023-03-27T11:12:37.974Z,23.90
2023-03-27T11:15:14.636Z,24.10
2023-03-27T11:17:48.812Z,24.20
2023-03-27T11:20:31.616Z,24.30
2023-03-27T11:23:22.873Z,24.40
2023-03-27T11:26:15.751Z,24.30
2023-03-27T11:28:51.548Z,24.20
2023-03-27T11:31:34.184Z,24.10
2023-03-27T11:34:07.385Z,24.00
2023-03-27T11:36:49.469Z,24.10
2023-03-27T11:39:38.901Z,24.20
2023-03-27T11:42:15.047Z,24.30
2023-03-27T11:44:43.594Z,24.40
2023-03-27T11:47:28.933Z,24.40
2023-03-27T11:50:18.944Z,24.30
2023-03-27T11:52:59.415Z,24.10
2023-03-27T11:56:07.242Z,24.00
2023-03-27T11:58:44.813Z,23.80
2023-03-27T12:01:19.466Z,23.80
2023-03-27T12:04:08.209Z,23.90
2023-03-27T12:07:05.250Z,23.90
2023-03-27T12:09:55.488Z,23.90
2023-03-27T12:13:19.150Z,23.80
2023-03-27T12:15:57.584Z,23.80
2023-03-27T12:21:29.344Z,24.00
2023-03-27T12:24:28.377Z,24.20
2023-03-27T12:27:27.532Z,24.40
2023-03-27T12:30:17.786Z,24.60
2023-03-27T12:33:19.684Z,24.70
2023-03-27T12:35:51.689Z,24.80
2023-03-27T12:38:27.382Z,24.90
2023-03-27T12:41:06.419Z,25.00
2023-03-27T12:43:58.965Z,25.10
2023-03-27T12:46:36.765Z,25.10
2023-03-27T12:49:49.082Z,25.10
2023-03-27T12:52:28.592Z,25.00
2023-03-27T12:55:09.300Z,24.80
2023-03-27T12:57:56.002Z,24.80
2023-03-27T13:00:55.009Z,24.80
2023-03-27T13:03:44.732Z,24.90
2023-03-27T13:06:23.644Z,24.90
2023-03-27T13:09:09.665Z,24.90
2023-03-27T13:12:07.319Z,24.70
2023-03-27T13:15:12.357Z,24.60
2023-03-27T13:17:56.281Z,24.60
2023-03-27T13:20:34.875Z,24.50
2023-03-27T13:23:16.061Z,24.50
2023-03-27T13:25:59.104Z,24.40
2023-03-27T13:28:36.073Z,24.40
2023-03-27T13:31:14.812Z,24.30
2023-03-27T13:34:13.994Z,24.30
2023-03-27T13:36:47.561Z,24.20
2023-03-27T13:39:24.032Z,24.20
2023-03-27T13:42:06.358Z,24.10
2023-03-27T13:44:50.096Z,24.10
2023-03-27T13:47:55.406Z,24.00
2023-03-27T13:50:47.443Z,24.00
2023-03-27T13:53:52.128Z,24.00
2023-03-27T13:57:01.115Z,24.10
2023-03-27T14:00:37.938Z,24.10
2023-03-27T14:03:35.515Z,24.20
2023-03-27T14:06:45.915Z,24.10
2023-03-27T14:09:26.701Z,24.10
2023-03-27T14:12:15.079Z,24.00
2023-03-27T14:15:26.675Z,24.00
2023-03-27T14:18:36.491Z,24.00
2023-03-27T14:21:09.332Z,24.00
2023-03-27T14:23:50.339Z,23.90
2023-03-27T14:26:30.406Z,23.90
2023-03-27T14:29:02.050Z,23.90
2023-03-27T14:31:36.353Z,23.90
2023-03-27T14:34:24.855Z,23.90
2023-03-27T14:37:22.719Z,23.80
2023-03-27T14:39:57.139Z,23.80
2023-03-27T14:42:31.950Z,23.80
2023-03-27T14:45:18.001Z,23.80
2023-03-27T14:47:50.819Z,23.80
2023-03-27T14:50:19.803Z,23.80
2023-03-27T14:52:53.299Z,23.80
2023-03-27T14:55:25.777Z,23.80
2023-03-27T14:58:13.072Z,23.80
2023-03-27T15:00:42.844Z,23.80
2023-03-27T15:03:16.649Z,23.80
2023-03-27T15:06:00.725Z,23.80
2023-03-27T15:08:37.073Z,23.80
2023-03-27T15:11:23.233Z,23.80
2023-03-27T15:14:06.896Z,23.90
2023-03-27T15:16:36.736Z,24.00
2023-03-27T15:19:12.268Z,24.00
2023-03-27T15:21:50.892Z,24.10
2023-03-27T15:24:29.529Z,24.10
2023-03-27T15:27:02.040Z,24.10
2023-03-27T15:29:39.242Z,24.20
2023-03-27T15:32:11.408Z,24.20
2023-03-27T15:34:46.191Z,24.20
2023-03-27T15:37:19.830Z,24.10
2023-03-27T15:40:06.346Z,24.10
2023-03-27T15:42:47.506Z,24.10
2023-03-27T15:45:17.277Z,24.10
2023-03-27T15:47:47.127Z,24.10
2023-03-27T15:50:21.027Z,24.10
2023-03-27T15:52:50.934Z,24.10
2023-03-27T15:55:33.702Z,24.10
2023-03-27T15:58:16.128Z,24.10
2023-03-27T16:00:48.740Z,24.10
2023-03-27T16:03:21.134Z,24.10
2023-03-27T16:05:50.939Z,24.10
2023-03-27T16:08:31.709Z,24.10
2023-03-27T16:11:00.530Z,24.20
2023-03-27T16:13:35.512Z,24.20
2023-03-27T16:16:06.459Z,24.10
2023-03-27T16:18:36.775Z,24.10
2023-03-27T16:21:09.970Z,24.10
2023-03-27T16:23:38.512Z,24.00
2023-03-27T16:26:08.179Z,24.00
2023-03-27T16:28:37.716Z,24.00
2023-03-27T16:31:13.125Z,23.90
2023-03-27T16:33:43.012Z,23.90
2023-03-27T16:36:13.195Z,23.90
2023-03-27T16:38:43.494Z,23.90
2023-03-27T16:41:13.924Z,23.90
2023-03-27T16:43:44.689Z,23.90
2023-03-27T16:46:18.218Z,23.80
2023-03-27T16:48:46.369Z,23.80
2023-03-27T16:51:14.709Z,23.80
2023-03-27T16:53:42.867Z,23.80
2023-03-27T16:56:11.514Z,23.80
2023-03-27T16:58:39.804Z,23.80
2023-03-27T17:01:10.655Z,23.80
2023-03-27T17:03:38.858Z,23.80
2023-03-27T17:06:08.750Z,23.90
2023-03-27T17:08:37.766Z,23.90
2023-03-27T17:11:08.514Z,23.80
2023-03-27T17:13:37.344Z,23.80
2023-03-27T17:16:06.769Z,23.70
2023-03-27T17:18:36.989Z,23.70
2023-03-27T17:21:05.506Z,23.70
2023-03-27T17:23:33.673Z,23.60
2023-03-27T17:26:02.175Z,23.50
2023-03-27T17:28:30.414Z,23.50
2023-03-27T17:31:04.598Z,23.40
2023-03-27T17:33:33.964Z,23.40
2023-03-27T17:36:08.995Z,23.30
2023-03-27T17:38:37.140Z,23.30
2023-03-27T17:41:05.629Z,23.20
2023-03-27T17:43:34.087Z,23.20
2023-03-27T17:46:02.394Z,23.10
2023-03-27T17:48:36.715Z,23.10
2023-03-27T17:51:09.457Z,23.10
2023-03-27T17:53:38.785Z,23.00
2023-03-27T17:56:07.977Z,23.00
2023-03-27T17:58:37.129Z,22.90
2023-03-27T18:01:16.523Z,22.90
2023-03-27T18:03:45.275Z,22.90
2023-03-27T18:06:17.255Z,22.90
2023-03-27T18:08:46.163Z,22.80
2023-03-27T18:11:17.085Z,22.80
2023-03-27T18:13:52.640Z,22.80
2023-03-27T18:16:22.150Z,22.80
2023-03-27T18:18:51.072Z,22.80
2023-03-27T18:21:20.555Z,22.80
2023-03-27T18:23:48.692Z,22.80
2023-03-27T18:26:17.734Z,22.80
2023-03-27T18:28:45.965Z,22.80
2023-03-27T18:31:15.342Z,22.80
2023-03-27T18:33:43.494Z,22.80
2023-03-27T18:36:12.220Z,22.80
2023-03-27T18:38:42.897Z,22.80
2023-03-27T18:41:11.852Z,22.80
2023-03-27T18:43:40.100Z,22.80
2023-03-27T18:46:08.756Z,22.80
2023-03-27T18:48:37.375Z,22.70
2023-03-27T18:51:07.044Z,22.70
2023-03-27T18:53:35.248Z,22.70
2023-03-27T18:56:05.208Z,22.70
2023-03-27T18:58:33.911Z,22.70
2023-03-27T19:01:02.164Z,22.60
2023-03-27T19:03:34.737Z,22.60
2023-03-27T19:06:07.373Z,22.60
2023-03-27T19:08:37.619Z,22.60
2023-03-27T19:11:08.057Z,22.60
2023-03-27T19:13:55.684Z,22.50
2023-03-27T19:16:30.432Z,22.50
2023-03-27T19:19:34.889Z,22.50
2023-03-27T19:22:24.323Z,22.50
2023-03-27T19:24:58.041Z,22.50
2023-03-27T19:27:28.559Z,22.50
2023-03-27T19:30:12.459Z,22.50
2023-03-27T19:32:41.419Z,22.50
2023-03-27T19:35:10.719Z,22.50
2023-03-27T19:37:38.815Z,22.50
2023-03-27T19:40:09.457Z,22.50
2023-03-27T19:42:38.960Z,22.50
2023-03-27T19:45:08.717Z,22.50
2023-03-27T19:47:37.136Z,22.50
2023-03-27T19:50:08.523Z,22.50
2023-03-27T19:53:07.621Z,22.50
2023-03-27T19:55:37.226Z,22.50
2023-03-27T19:58:06.770Z,22.50
2023-03-27T20:00:38.357Z,22.50
2023-03-27T20:03:10.343Z,22.40
2023-03-27T20:05:40.436Z,22.40
2023-03-27T20:08:08.655Z,22.40
2023-03-27T20:10:36.738Z,22.40
2023-03-27T20:13:06.539Z,22.40
2023-03-27T20:15:35.001Z,22.40
2023-03-27T20:18:07.447Z,22.40
2023-03-27T20:20:37.576Z,22.40
2023-03-27T20:23:06.068Z,22.30
2023-03-27T20:25:35.369Z,22.30
2023-03-27T20:28:05.029Z,22.30
2023-03-27T20:30:37.891Z,22.30
2023-03-27T20:33:09.377Z,22.20
2023-03-27T20:35:37.842Z,22.20
2023-03-27T20:38:10.787Z,22.20
2023-03-27T20:40:53.292Z,22.20
2023-03-27T20:43:27.256Z,22.20
2023-03-27T20:45:58.949Z,22.20
2023-03-27T20:48:39.986Z,22.20
2023-03-27T20:51:14.450Z,22.20
2023-03-27T20:53:43.172Z,22.20
2023-03-27T20:56:14.284Z,22.20
2023-03-27T20:58:44.322Z,22.20
2023-03-27T21:01:14.272Z,22.20
2023-03-27T21:03:46.072Z,22.10
2023-03-27T21:06:17.121Z,22.10
2023-03-27T21:08:45.527Z,22.10
2023-03-27T21:11:13.965Z,22.10
2023-03-27T21:13:42.109Z,22.10
2023-03-27T21:16:10.603Z,22.10
2023-03-27T21:18:40.241Z,22.10
2023-03-27T21:21:08.636Z,22.10
2023-03-27T21:23:39.329Z,22.10
2023-03-27T21:26:08.275Z,22.10
2023-03-27T21:28:36.436Z,22.10
2023-03-27T21:31:07.852Z,22.00
2023-03-27T21:33:36.202Z,22.00
2023-03-27T21:36:06.860Z,22.00
2023-03-27T21:38:35.340Z,22.00
2023-03-27T21:41:04.041Z,22.00
2023-03-27T21:43:32.953Z,22.00
2023-03-27T21:46:03.623Z,22.00
2023-03-27T21:48:32.209Z,22.00
2023-03-27T21:51:02.005Z,22.00
2023-03-27T21:53:32.344Z,22.00
2023-03-27T21:56:00.758Z,22.00
2023-03-27T21:58:29.290Z,22.00
2023-03-27T22:00:58.540Z,22.00
2023-03-27T22:03:27.534Z,22.00
2023-03-27T22:06:10.296Z,22.00
2023-03-27T22:08:42.432Z,22.00
2023-03-27T22:11:11.413Z,22.00
2023-03-27T22:13:40.070Z,22.00
2023-03-27T22:16:13.261Z,22.00
2023-03-27T22:18:42.251Z,22.00
2023-03-27T22:21:16.466Z,22.00
2023-03-27T22:23:46.505Z,22.00
2023-03-27T22:26:14.634Z,21.90
2023-03-27T22:28:42.729Z,21.90
2023-03-27T22:31:11.527Z,21.90
2023-03-27T22:33:39.956Z,21.90
2023-03-27T22:36:11.976Z,21.90
2023-03-27T22:38:41.311Z,21.90
2023-03-27T22:41:12.762Z,21.90
2023-03-27T22:43:41.605Z,21.80
2023-03-27T22:46:11.989Z,21.90
2023-03-27T22:48:40.734Z,21.80
2023-03-27T22:51:09.670Z,21.80
2023-03-27T22:53:38.653Z,21.80
2023-03-27T22:56:08.250Z,21.80
2023-03-27T22:58:37.915Z,21.80
2023-03-27T23:01:07.125Z,21.80
2023-03-27T23:03:35.383Z,21.80
2023-03-27T23:06:04.116Z,21.80
2023-03-27T23:08:32.385Z,21.80
2023-03-27T23:11:02.118Z,21.80
2023-03-27T23:13:32.390Z,21.80
2023-03-27T23:16:02.140Z,21.80
2023-03-27T23:18:30.690Z,21.90
2023-03-27T23:21:00.512Z,21.90
2023-03-27T23:23:30.270Z,21.90
2023-03-27T23:25:58.920Z,21.90
2023-03-27T23:28:30.383Z,21.90
2023-03-27T23:31:00.087Z,21.90
2023-03-27T23:33:38.597Z,21.90
2023-03-27T23:36:09.110Z,21.80
2023-03-27T23:38:37.420Z,21.80
2023-03-27T23:41:06.858Z,21.80
2023-03-27T23:43:35.030Z,21.80
2023-03-27T23:46:04.903Z,21.80
2023-03-27T23:48:34.436Z,21.80
2023-03-27T23:51:02.548Z,21.80
2023-03-27T23:53:31.212Z,21.80
2023-03-27T23:56:00.583Z,21.80
2023-03-27T23:58:32.416Z,21.70
